createdAt,value
2023-05-11T00:00:07.215Z,16.90
2023-05-11T00:02:35.637Z,16.90
2023-05-11T00:05:04.164Z,16.90
2023-05-11T00:07:32.531Z,16.90
2023-05-11T00:10:02.292Z,16.90
2023-05-11T00:12:30.701Z,16.90
2023-05-11T00:14:59.134Z,16.90
2023-05-11T00:17:27.548Z,16.90
2023-05-11T00:19:56.018Z,16.90
2023-05-11T00:22:24.423Z,16.90
2023-05-11T00:24:52.818Z,16.90
2023-05-11T00:27:22.703Z,16.90
2023-05-11T00:29:51.249Z,16.80
2023-05-11T00:32:19.725Z,16.80
2023-05-11T00:34:48.199Z,16.70
2023-05-11T00:37:16.586Z,16.80
2023-05-11T00:39:45.033Z,16.70
2023-05-11T00:42:13.538Z,16.70
2023-05-11T00:44:43.409Z,16.70
2023-05-11T00:47:12.093Z,16.60
2023-05-11T00:49:40.674Z,16.60
2023-05-11T00:52:09.548Z,16.60
2023-05-11T00:54:38.200Z,16.60
2023-05-11T00:57:06.646Z,16.60
2023-05-11T00:59:35.035Z,16.60
2023-05-11T01:02:05.603Z,16.60
2023-05-11T01:04:34.852Z,16.60
2023-05-11T01:07:08.003Z,16.60
2023-05-11T01:09:42.262Z,16.60
2023-05-11T01:12:15.450Z,16.60
2023-05-11T01:14:47.135Z,16.50
2023-05-11T01:17:19.960Z,16.50
2023-05-11T01:19:50.414Z,16.40
2023-05-11T01:22:29.366Z,16.50
2023-05-11T01:25:06.884Z,16.50
2023-05-11T01:27:44.806Z,16.50
2023-05-11T01:30:26.418Z,16.40
2023-05-11T01:32:56.079Z,16.40
2023-05-11T01:35:26.024Z,16.30
2023-05-11T01:37:56.525Z,16.30
2023-05-11T01:40:26.166Z,16.30
2023-05-11T01:42:59.846Z,16.30
2023-05-11T01:45:30.044Z,16.30
2023-05-11T01:47:59.027Z,16.30
2023-05-11T01:50:27.854Z,16.20
2023-05-11T01:52:56.322Z,16.20
2023-05-11T01:55:24.897Z,16.20
2023-05-11T01:57:54.210Z,16.20
2023-05-11T02:00:22.836Z,16.20
2023-05-11T02:02:54.744Z,16.20
2023-05-11T02:05:23.842Z,16.30
2023-05-11T02:07:54.012Z,16.30
2023-05-11T02:10:25.079Z,16.30
2023-05-11T02:12:54.223Z,16.30
2023-05-11T02:15:23.028Z,16.40
2023-05-11T02:17:54.064Z,16.40
2023-05-11T02:20:22.809Z,16.40
2023-05-11T02:22:51.768Z,16.40
2023-05-11T02:25:20.944Z,16.30
2023-05-11T02:27:49.390Z,16.40
2023-05-11T02:30:18.035Z,16.30
2023-05-11T02:32:49.590Z,16.30
2023-05-11T02:35:21.758Z,16.40
2023-05-11T02:37:50.915Z,16.40
2023-05-11T02:40:20.456Z,16.40
2023-05-11T02:42:50.802Z,16.40
2023-05-11T02:45:20.565Z,16.40
2023-05-11T02:47:51.299Z,16.40
2023-05-11T02:50:24.301Z,16.30
2023-05-11T02:52:54.737Z,16.30
2023-05-11T02:55:23.590Z,16.40
2023-05-11T02:57:52.267Z,16.40
2023-05-11T03:00:21.250Z,16.30
2023-05-11T03:02:50.097Z,16.40
2023-05-11T03:05:18.677Z,16.40
2023-05-11T03:07:48.496Z,16.30
2023-05-11T03:10:17.348Z,16.40
2023-05-11T03:12:46.391Z,16.30
2023-05-11T03:15:16.723Z,16.30
2023-05-11T03:17:45.388Z,16.30
2023-05-11T03:20:14.793Z,16.30
2023-05-11T03:22:43.754Z,16.30
2023-05-11T03:25:14.509Z,16.30
2023-05-11T03:27:43.755Z,16.30
2023-05-11T03:30:13.212Z,16.30
2023-05-11T03:32:41.719Z,16.20
2023-05-11T03:35:10.411Z,16.20
2023-05-11T03:37:39.272Z,16.30
2023-05-11T03:40:10.329Z,16.20
2023-05-11T03:42:40.801Z,16.20
2023-05-11T03:45:10.224Z,16.30
2023-05-11T03:47:40.652Z,16.30
2023-05-11T03:50:10.321Z,16.20
2023-05-11T03:52:39.107Z,16.20
2023-05-11T03:55:08.158Z,16.20
2023-05-11T03:57:36.880Z,16.30
2023-05-11T04:00:08.168Z,16.30
2023-05-11T04:02:36.896Z,16.20
2023-05-11T04:05:07.704Z,16.20
2023-05-11T04:07:37.088Z,16.20
2023-05-11T04:10:06.245Z,16.30
2023-05-11T04:12:34.740Z,16.30
2023-05-11T04:15:03.517Z,16.30
2023-05-11T04:17:33.406Z,16.30
2023-05-11T04:20:01.864Z,16.30
2023-05-11T04:22:30.416Z,16.30
2023-05-11T04:24:58.871Z,16.40
2023-05-11T04:27:27.249Z,16.40
2023-05-11T04:29:56.098Z,16.50
2023-05-11T04:32:24.679Z,16.50
2023-05-11T04:34:54.484Z,16.50
2023-05-11T04:37:25.321Z,16.50
2023-05-11T04:39:53.705Z,16.60
2023-05-11T04:42:22.226Z,16.60
2023-05-11T04:44:53.709Z,16.70
2023-05-11T04:47:22.098Z,16.70
2023-05-11T04:49:50.935Z,16.80
2023-05-11T04:52:20.858Z,16.70
2023-05-11T04:54:49.250Z,16.70
2023-05-11T04:57:17.737Z,16.70
2023-05-11T04:59:46.149Z,16.80
2023-05-11T05:02:14.686Z,16.90
2023-05-11T05:04:43.145Z,16.90
2023-05-11T05:07:12.654Z,17.00
2023-05-11T05:09:45.129Z,17.10
2023-05-11T05:12:13.841Z,17.20
2023-05-11T05:14:42.302Z,17.30
2023-05-11T05:17:10.799Z,17.40
2023-05-11T05:19:39.292Z,17.30
2023-05-11T05:22:07.614Z,17.40
2023-05-11T05:24:36.349Z,17.50
2023-05-11T05:27:06.165Z,17.60
2023-05-11T05:29:34.486Z,17.60
2023-05-11T05:32:02.832Z,17.70
2023-05-11T05:34:31.276Z,17.80
2023-05-11T05:36:59.740Z,17.80
2023-05-11T05:39:28.125Z,17.80
2023-05-11T05:41:56.525Z,17.90
2023-05-11T05:44:26.287Z,17.90
2023-05-11T05:46:54.728Z,17.90
2023-05-11T05:49:23.221Z,17.90
2023-05-11T05:51:52.189Z,17.90
2023-05-11T05:54:20.685Z,18.00
2023-05-11T05:56:50.614Z,17.80
2023-05-11T05:59:21.450Z,17.90
2023-05-11T06:01:51.662Z,18.00
2023-05-11T06:04:20.152Z,18.10
2023-05-11T06:06:48.725Z,18.00
2023-05-11T06:09:17.281Z,18.10
2023-05-11T06:11:45.736Z,18.00
2023-05-11T06:14:14.190Z,18.00
2023-05-11T06:16:42.802Z,18.10
2023-05-11T06:19:13.507Z,18.20
2023-05-11T06:21:43.062Z,18.30
2023-05-11T06:24:11.418Z,18.30
2023-05-11T06:26:40.919Z,18.30
2023-05-11T06:29:09.357Z,18.40
2023-05-11T06:31:38.028Z,18.50
2023-05-11T06:34:06.611Z,18.50
2023-05-11T06:36:36.388Z,18.60
2023-05-11T06:39:05.265Z,18.60
2023-05-11T06:41:33.660Z,18.60
2023-05-11T06:44:02.071Z,18.50
2023-05-11T06:46:30.609Z,18.60
2023-05-11T06:48:59.164Z,18.60
2023-05-11T06:51:27.586Z,18.60
2023-05-11T06:53:57.391Z,18.70
2023-05-11T06:56:25.761Z,18.70
2023-05-11T06:58:54.264Z,18.70
2023-05-11T07:01:22.755Z,18.80
2023-05-11T07:03:53.437Z,18.90
2023-05-11T07:06:23.226Z,19.00
2023-05-11T07:08:51.672Z,19.00
2023-05-11T07:11:22.007Z,19.00
2023-05-11T07:13:50.438Z,18.90
2023-05-11T07:16:19.070Z,18.90
2023-05-11T07:18:47.607Z,19.00
2023-05-11T07:21:16.224Z,18.90
2023-05-11T07:23:44.681Z,18.90
2023-05-11T07:26:13.069Z,19.00
2023-05-11T07:28:42.856Z,18.90
2023-05-11T07:31:11.451Z,19.10
2023-05-11T07:33:39.890Z,19.20
2023-05-11T07:36:08.909Z,19.40
2023-05-11T07:38:37.772Z,19.70
2023-05-11T07:41:07.429Z,20.00
2023-05-11T07:43:36.819Z,20.00
2023-05-11T07:46:07.302Z,19.90
2023-05-11T07:48:35.722Z,20.00
2023-05-11T07:51:04.249Z,20.10
2023-05-11T07:53:33.178Z,20.30
2023-05-11T07:56:01.741Z,20.60
2023-05-11T07:58:30.254Z,20.60
2023-05-11T08:00:58.765Z,20.70
2023-05-11T08:03:28.573Z,20.80
2023-05-11T08:05:57.200Z,20.90
2023-05-11T08:08:26.197Z,21.20
2023-05-11T08:10:54.569Z,21.30
2023-05-11T08:13:23.110Z,21.30
2023-05-11T08:15:51.540Z,21.40
2023-05-11T08:18:20.035Z,21.40
2023-05-11T08:20:49.955Z,21.50
2023-05-11T08:23:18.611Z,21.50
2023-05-11T08:25:51.432Z,21.70
2023-05-11T08:28:19.861Z,21.60
2023-05-11T08:30:48.559Z,21.70
2023-05-11T08:33:35.914Z,21.60
2023-05-11T08:36:07.581Z,21.50
2023-05-11T08:38:36.459Z,21.50
2023-05-11T08:41:05.034Z,21.40
2023-05-11T08:43:35.619Z,21.40
2023-05-11T08:46:07.486Z,21.50
2023-05-11T08:48:36.305Z,21.50
2023-05-11T08:51:06.487Z,21.10
2023-05-11T08:53:35.074Z,21.10
2023-05-11T08:56:06.880Z,21.20
2023-05-11T08:58:37.414Z,21.10
2023-05-11T09:01:06.735Z,21.20
2023-05-11T09:03:36.482Z,21.00
2023-05-11T09:06:08.569Z,21.00
2023-05-11T09:08:38.366Z,20.90
2023-05-11T09:11:07.212Z,21.00
2023-05-11T09:13:35.614Z,21.00
2023-05-11T09:16:04.318Z,20.80
2023-05-11T09:18:32.870Z,20.70
2023-05-11T09:21:02.098Z,20.70
2023-05-11T09:23:33.299Z,20.80
2023-05-11T09:26:01.764Z,21.00
2023-05-11T09:28:35.935Z,20.90
2023-05-11T09:31:04.799Z,20.80
2023-05-11T09:33:33.197Z,20.90
2023-05-11T09:36:02.984Z,20.70
2023-05-11T09:38:33.141Z,20.80
2023-05-11T09:41:03.336Z,20.70
2023-05-11T09:43:32.150Z,20.70
2023-05-11T09:46:01.909Z,20.50
2023-05-11T09:48:31.760Z,20.50
2023-05-11T09:51:01.662Z,20.40
2023-05-11T09:53:38.808Z,20.50
2023-05-11T09:56:07.354Z,20.10
2023-05-11T09:58:52.387Z,20.20
2023-05-11T10:01:28.961Z,20.20
2023-05-11T10:04:08.939Z,20.20
2023-05-11T10:06:47.137Z,20.10
2023-05-11T10:09:18.008Z,19.90
2023-05-11T10:11:47.135Z,20.00
2023-05-11T10:14:16.218Z,20.00
2023-05-11T10:16:45.042Z,19.80
2023-05-11T10:19:14.715Z,19.90
2023-05-11T10:21:43.353Z,20.00
2023-05-11T10:24:11.931Z,19.90
2023-05-11T10:26:42.509Z,19.80
2023-05-11T10:29:11.570Z,19.80
2023-05-11T10:31:41.370Z,19.80
2023-05-11T10:34:11.710Z,19.80
2023-05-11T10:36:40.199Z,19.80
2023-05-11T10:39:08.638Z,19.70
2023-05-11T10:41:46.508Z,19.70
2023-05-11T10:44:23.705Z,19.60
2023-05-11T10:46:59.197Z,19.40
2023-05-11T10:49:35.976Z,19.60
2023-05-11T10:52:11.975Z,19.70
2023-05-11T10:54:46.532Z,19.80
2023-05-11T10:57:21.445Z,19.80
2023-05-11T11:00:17.097Z,19.80
2023-05-11T11:02:46.663Z,19.80
2023-05-11T11:05:18.054Z,19.80
2023-05-11T11:08:00.264Z,19.80
2023-05-11T11:10:32.620Z,19.90
2023-05-11T11:13:06.520Z,19.80
2023-05-11T11:15:53.491Z,19.90
2023-05-11T11:18:22.601Z,19.90
2023-05-11T11:20:52.925Z,19.80
2023-05-11T11:23:39.722Z,19.70
2023-05-11T11:26:08.392Z,19.70
2023-05-11T11:28:56.686Z,19.60
2023-05-11T11:31:27.525Z,19.60
2023-05-11T11:33:59.219Z,19.70
2023-05-11T11:36:46.306Z,19.70
2023-05-11T11:39:14.752Z,19.70
2023-05-11T11:41:43.356Z,19.80
2023-05-11T11:44:21.585Z,19.80
2023-05-11T11:47:11.237Z,19.70
2023-05-11T11:49:39.962Z,19.60
2023-05-11T11:52:12.154Z,19.50
2023-05-11T11:54:40.830Z,19.60
2023-05-11T11:57:33.260Z,19.70
2023-05-11T12:00:02.101Z,19.60
2023-05-11T12:02:32.308Z,19.60
2023-05-11T12:05:02.179Z,19.50
2023-05-11T12:07:34.118Z,19.50
2023-05-11T12:10:04.143Z,19.60
2023-05-11T12:12:32.824Z,19.70
2023-05-11T12:15:02.454Z,19.90
2023-05-11T12:17:34.544Z,20.00
2023-05-11T12:20:13.000Z,20.00
2023-05-11T12:22:41.649Z,20.00
2023-05-11T12:25:11.428Z,20.10
2023-05-11T12:27:47.748Z,20.10
2023-05-11T12:30:22.889Z,20.10
2023-05-11T12:35:25.323Z,19.80
2023-05-11T12:37:53.948Z,19.90
2023-05-11T12:40:22.385Z,19.90
2023-05-11T12:42:51.372Z,19.90
2023-05-11T12:45:20.529Z,20.00
2023-05-11T12:47:49.881Z,20.10
2023-05-11T12:50:20.095Z,20.10
2023-05-11T12:52:49.201Z,20.20
2023-05-11T12:55:27.595Z,20.00
2023-05-11T12:58:07.790Z,19.70
2023-05-11T13:00:36.502Z,19.80
2023-05-11T13:03:05.120Z,19.90
2023-05-11T13:05:35.853Z,19.70
2023-05-11T13:08:04.981Z,19.70
2023-05-11T13:10:33.448Z,19.60
2023-05-11T13:13:01.938Z,19.60
2023-05-11T13:15:30.977Z,19.70
2023-05-11T13:18:00.686Z,19.50
2023-05-11T13:20:29.993Z,19.60
2023-05-11T13:23:06.877Z,19.80
2023-05-11T13:25:35.805Z,19.90
2023-05-11T13:28:04.410Z,19.90
2023-05-11T13:30:34.963Z,19.90
2023-05-11T13:33:04.093Z,20.10
2023-05-11T13:35:32.546Z,20.20
2023-05-11T13:38:01.203Z,20.00
2023-05-11T13:40:31.011Z,20.10
2023-05-11T13:43:00.515Z,20.00
2023-05-11T13:45:29.534Z,19.90
2023-05-11T13:47:58.026Z,20.00
2023-05-11T13:50:27.170Z,19.80
2023-05-11T13:52:55.715Z,19.70
2023-05-11T13:55:24.186Z,19.50
2023-05-11T13:57:54.163Z,19.40
2023-05-11T14:00:22.790Z,19.50
2023-05-11T14:02:51.958Z,19.60
2023-05-11T14:05:20.737Z,19.90
2023-05-11T14:07:49.443Z,20.00
2023-05-11T14:10:18.120Z,20.00
2023-05-11T14:12:46.945Z,20.00
2023-05-11T14:15:16.813Z,20.10
2023-05-11T14:17:45.619Z,20.10
2023-05-11T14:20:14.643Z,19.90
2023-05-11T14:22:43.037Z,19.70
2023-05-11T14:25:11.775Z,19.60
2023-05-11T14:27:40.208Z,19.50
2023-05-11T14:30:09.321Z,19.50
2023-05-11T14:32:39.154Z,19.30
2023-05-11T14:35:07.695Z,19.30
2023-05-11T14:37:36.568Z,19.10
2023-05-11T14:40:05.286Z,19.10
2023-05-11T14:42:33.650Z,19.20
2023-05-11T14:45:02.092Z,19.10
2023-05-11T14:47:30.615Z,19.00
2023-05-11T14:50:00.446Z,19.00
2023-05-11T14:52:28.812Z,19.10
2023-05-11T14:54:57.234Z,19.00
2023-05-11T14:57:25.724Z,19.10
2023-05-11T15:00:00.024Z,19.20
2023-05-11T15:02:29.693Z,19.10
2023-05-11T15:04:58.247Z,19.10
2023-05-11T15:07:28.109Z,19.10
2023-05-11T15:09:56.516Z,19.10
2023-05-11T15:12:25.050Z,19.00
2023-05-11T15:14:53.475Z,19.10
2023-05-11T15:17:21.921Z,19.10
2023-05-11T15:19:50.286Z,19.10
2023-05-11T15:22:19.201Z,19.10
2023-05-11T15:24:49.173Z,19.10
2023-05-11T15:27:17.649Z,18.90
2023-05-11T15:29:46.000Z,18.90
2023-05-11T15:32:15.350Z,18.90
2023-05-11T15:34:55.516Z,19.00
2023-05-11T15:37:28.050Z,19.00
2023-05-11T15:39:58.253Z,18.90
2023-05-11T15:42:26.660Z,18.90
2023-05-11T15:44:55.169Z,18.90
2023-05-11T15:47:23.785Z,19.00
2023-05-11T15:49:52.713Z,19.20
2023-05-11T15:52:21.542Z,19.10
2023-05-11T15:54:50.315Z,19.10
2023-05-11T15:57:20.128Z,19.00
2023-05-11T15:59:48.715Z,19.00
2023-05-11T16:02:17.147Z,19.00
2023-05-11T16:04:45.582Z,19.10
2023-05-11T16:07:14.003Z,19.20
2023-05-11T16:09:42.458Z,19.10
2023-05-11T16:12:11.404Z,19.10
2023-05-11T16:14:41.247Z,19.20
2023-05-11T16:17:10.048Z,19.10
2023-05-11T16:19:38.585Z,19.10
2023-05-11T16:22:07.529Z,19.20
2023-05-11T16:24:35.949Z,19.10
2023-05-11T16:27:04.477Z,19.00
2023-05-11T16:29:32.928Z,19.00
2023-05-11T16:32:02.732Z,19.20
2023-05-11T16:34:31.171Z,19.10
2023-05-11T16:36:59.687Z,19.10
2023-05-11T16:39:28.182Z,19.20
2023-05-11T16:41:56.552Z,19.20
2023-05-11T16:44:25.243Z,19.20
2023-05-11T16:46:53.733Z,19.20
2023-05-11T16:49:23.602Z,19.20
2023-05-11T16:51:52.782Z,19.10
2023-05-11T16:54:21.464Z,19.10
2023-05-11T16:56:49.888Z,19.10
2023-05-11T16:59:18.278Z,19.00
2023-05-11T17:01:46.872Z,19.00
2023-05-11T17:04:15.430Z,19.00
2023-05-11T17:06:45.316Z,19.00
2023-05-11T17:09:14.168Z,19.00
2023-05-11T17:11:42.653Z,19.10
2023-05-11T17:14:11.147Z,18.90
2023-05-11T17:16:39.529Z,19.00
2023-05-11T17:19:08.406Z,19.00
2023-05-11T17:21:38.064Z,19.00
2023-05-11T17:24:08.202Z,19.00
2023-05-11T17:26:47.165Z,19.00
2023-05-11T17:29:16.667Z,19.00
2023-05-11T17:31:46.549Z,19.10
2023-05-11T17:34:15.626Z,19.10
2023-05-11T17:36:44.640Z,19.10
2023-05-11T17:39:16.054Z,19.10
2023-05-11T17:41:44.574Z,19.10
2023-05-11T17:44:12.994Z,19.00
2023-05-11T17:46:41.384Z,19.00
2023-05-11T17:49:09.924Z,18.90
2023-05-11T17:51:38.342Z,18.90
2023-05-11T17:54:06.921Z,18.90
2023-05-11T17:56:36.716Z,18.80
2023-05-11T17:59:05.273Z,18.80
2023-05-11T18:01:34.637Z,18.80
2023-05-11T18:04:04.650Z,18.80
2023-05-11T18:06:34.597Z,18.80
2023-05-11T18:09:05.067Z,18.70
2023-05-11T18:11:33.574Z,18.80
2023-05-11T18:14:03.829Z,18.70
2023-05-11T18:16:32.297Z,18.70
2023-05-11T18:19:00.950Z,18.70
2023-05-11T18:21:29.716Z,18.60
2023-05-11T18:23:58.216Z,18.60
2023-05-11T18:26:26.754Z,18.60
2023-05-11T18:28:55.812Z,18.60
2023-05-11T18:31:25.813Z,18.50
2023-05-11T18:33:54.252Z,18.60
2023-05-11T18:36:22.625Z,18.50
2023-05-11T18:38:51.148Z,18.50
2023-05-11T18:41:19.590Z,18.40
2023-05-11T18:43:48.459Z,18.20
2023-05-11T18:46:16.920Z,18.10
2023-05-11T18:48:46.669Z,18.00
2023-05-11T18:51:18.954Z,18.10
2023-05-11T18:53:47.424Z,18.10
2023-05-11T18:56:16.073Z,18.10
2023-05-11T18:58:44.593Z,18.10
2023-05-11T19:01:13.187Z,18.10
2023-05-11T19:03:41.749Z,18.20
2023-05-11T19:06:12.004Z,18.30
2023-05-11T19:08:40.454Z,18.20
2023-05-11T19:11:09.990Z,18.00
2023-05-11T19:13:38.556Z,17.90
2023-05-11T19:16:07.007Z,17.80
2023-05-11T19:18:36.789Z,17.80
2023-05-11T19:21:05.959Z,17.80
2023-05-11T19:23:35.772Z,17.70
2023-05-11T19:26:04.199Z,17.80
2023-05-11T19:28:32.651Z,17.90
2023-05-11T19:31:01.918Z,17.90
2023-05-11T19:33:30.305Z,18.00
2023-05-11T19:35:58.729Z,18.20
2023-05-11T19:38:27.548Z,18.20
2023-05-11T19:40:57.318Z,18.00
2023-05-11T19:43:26.181Z,17.90
2023-05-11T19:45:54.654Z,17.80
2023-05-11T19:48:23.356Z,17.70
2023-05-11T19:50:51.755Z,17.60
2023-05-11T19:53:20.236Z,17.50
2023-05-11T19:55:48.713Z,17.50
2023-05-11T19:58:18.525Z,17.40
2023-05-11T20:00:47.002Z,17.40
2023-05-11T20:03:16.067Z,17.30
2023-05-11T20:05:44.695Z,17.30
2023-05-11T20:08:13.207Z,17.30
2023-05-11T20:10:41.587Z,17.30
2023-05-11T20:13:10.067Z,17.20
2023-05-11T20:15:39.905Z,17.20
2023-05-11T20:18:08.349Z,17.20
2023-05-11T20:20:36.836Z,17.10
2023-05-11T20:23:05.456Z,17.10
2023-05-11T20:25:34.058Z,17.00
2023-05-11T20:28:02.618Z,17.00
2023-05-11T20:30:31.053Z,17.00
2023-05-11T20:35:32.966Z,16.90
2023-05-11T20:38:01.412Z,17.00
2023-05-11T20:40:30.269Z,17.00
2023-05-11T20:42:58.730Z,17.00
2023-05-11T20:45:27.192Z,17.00
2023-05-11T20:47:55.659Z,17.00
2023-05-11T20:50:26.952Z,17.10
2023-05-11T20:52:55.618Z,17.10
2023-05-11T20:55:24.217Z,17.10
2023-05-11T20:57:52.661Z,17.10
2023-05-11T21:00:21.380Z,17.10
2023-05-11T21:02:50.157Z,17.00
2023-05-11T21:05:18.820Z,16.90
2023-05-11T21:07:48.666Z,16.90
2023-05-11T21:10:17.249Z,16.90
2023-05-11T21:12:45.859Z,16.90
2023-05-11T21:15:14.281Z,17.00
2023-05-11T21:17:42.799Z,17.00
2023-05-11T21:20:12.395Z,17.00
2023-05-11T21:22:40.837Z,17.00
2023-05-11T21:25:10.757Z,17.00
2023-05-11T21:27:39.228Z,17.00
2023-05-11T21:30:10.003Z,17.00
2023-05-11T21:32:38.487Z,17.00
2023-05-11T21:35:07.397Z,17.00
2023-05-11T21:37:36.477Z,17.00
2023-05-11T21:40:05.181Z,17.00
2023-05-11T21:42:36.380Z,16.90
2023-05-11T21:45:05.050Z,16.90
2023-05-11T21:47:33.544Z,16.90
2023-05-11T21:50:02.153Z,16.90
2023-05-11T21:52:30.628Z,16.90
2023-05-11T21:54:59.060Z,16.90
2023-05-11T21:57:27.501Z,16.90
2023-05-11T21:59:57.337Z,16.90
2023-05-11T22:02:25.878Z,16.80
2023-05-11T22:04:54.408Z,16.80
2023-05-11T22:07:23.714Z,16.80
2023-05-11T22:09:52.088Z,16.80
2023-05-11T22:12:31.150Z,16.80
2023-05-11T22:14:59.733Z,16.80
2023-05-11T22:17:28.212Z,16.70
2023-05-11T22:19:56.663Z,16.60
2023-05-11T22:22:25.404Z,16.60
2023-05-11T22:24:54.306Z,16.50
2023-05-11T22:27:22.698Z,16.40
2023-05-11T22:29:53.457Z,16.40
2023-05-11T22:32:22.361Z,16.30
2023-05-11T22:34:57.603Z,16.30
2023-05-11T22:37:26.503Z,16.30
2023-05-11T22:39:55.249Z,16.10
2023-05-11T22:42:23.604Z,16.10
2023-05-11T22:44:53.408Z,16.00
2023-05-11T22:47:21.795Z,15.90
2023-05-11T22:49:50.262Z,15.90
2023-05-11T22:52:18.642Z,15.90
2023-05-11T22:54:47.033Z,15.90
2023-05-11T22:57:17.209Z,16.00
2023-05-11T22:59:46.818Z,15.90
2023-05-11T23:02:16.768Z,15.90
2023-05-11T23:04:45.653Z,16.00
2023-05-11T23:07:14.080Z,16.00
2023-05-11T23:09:42.479Z,16.00
2023-05-11T23:12:10.888Z,16.00
2023-05-11T23:14:39.291Z,16.00
2023-05-11T23:17:07.695Z,16.00
2023-05-11T23:19:37.598Z,16.00
2023-05-11T23:22:06.253Z,16.00
2023-05-11T23:24:34.777Z,16.10
2023-05-11T23:27:03.442Z,16.00
2023-05-11T23:29:31.966Z,16.10
2023-05-11T23:32:00.445Z,16.20
2023-05-11T23:34:28.863Z,16.20
2023-05-11T23:36:58.646Z,16.20
2023-05-11T23:39:27.106Z,16.20
2023-05-11T23:41:55.547Z,16.10
2023-05-11T23:44:23.959Z,16.10
2023-05-11T23:46:52.425Z,16.00
2023-05-11T23:49:23.617Z,15.90
2023-05-11T23:51:52.549Z,15.90
2023-05-11T23:54:22.347Z,15.80
2023-05-11T23:56:50.759Z,15.70
2023-05-11T23:59:19.137Z,15.70
